Lebanon, Kansas
Current Conditions -  °F | °C
As of 2:55 PM on Monday 22 Dec 2014 (Local Time) from KCNK Reporting Station
Broken Clouds Broken Clouds  
Wind Chill: 50°   Ceiling: 5000
Heat Index: 50°   Visibility: 10mi
Dew Point: 35°   Wind: 16mph
Humidity: 57%   Direction: 330°NNW
Pressure: 29.47"   Gusts: 29mph
Location:  39.81°N, 98.56°W
Report Text: KCNK 222055Z AUTO 33014G25KT 10SM BKN050 10/02 A2947 RMK AO2 PK WND 31032/2013 SLP981 T01000017 56014
Loading
Personal Weather Stations






























Interactive Weather Map New forecast layout! Learn more

10-Day Weather Forecast

Advertisements
Track Severe Weather on mobile